SAS907 ESGG-ENZV
Flight info
| Callsign | SAS907 |
|---|---|
| Flight time | 0h 41m |
| Altitude | 30000 |
| Route | DETNA DCT RIVEX |
| Aircraft | A320/M-SDE3FGHIRWY/LB1 |
Departure
| Time | 2026-05-06 18:29 |
|---|---|
| Airport | Göteborg Landvetter Airport (ESGG) |
Arrival
| Time | 2026-05-06 19:10 |
|---|---|
| Airport | Stavanger Airport, Sola (ENZV) |
| Time | Latitude | Longitude | Altitude | Speed | Heading |
|---|---|---|---|---|---|
| 2026-05-06 17:47 | 57.67051 | 12.29562 | 530 ft | 0 kts | 116° |
| 2026-05-06 18:17 | 57.67056 | 12.29543 | 529 ft | 2 kts | 116° |
| 2026-05-06 18:17 | 57.67063 | 12.29516 | 529 ft | 2 kts | 116° |
| 2026-05-06 18:17 | 57.67070 | 12.29490 | 529 ft | 2 kts | 116° |
| 2026-05-06 18:18 | 57.67077 | 12.29463 | 529 ft | 2 kts | 116° |
| 2026-05-06 18:18 | 57.67081 | 12.29442 | 529 ft | 0 kts | 30° |
| 2026-05-06 18:23 | 57.67081 | 12.29443 | 529 ft | 1 kts | 30° |
| 2026-05-06 18:23 | 57.67090 | 12.29451 | 529 ft | 2 kts | 29° |
| 2026-05-06 18:23 | 57.67114 | 12.29475 | 530 ft | 6 kts | 27° |
| 2026-05-06 18:24 | 57.67165 | 12.29525 | 530 ft | 10 kts | 27° |
| 2026-05-06 18:24 | 57.67215 | 12.29478 | 531 ft | 9 kts | 308° |
| 2026-05-06 18:24 | 57.67265 | 12.29397 | 531 ft | 11 kts | 354° |
| 2026-05-06 18:24 | 57.67339 | 12.29454 | 532 ft | 12 kts | 27° |
| 2026-05-06 18:25 | 57.67415 | 12.29448 | 532 ft | 12 kts | 312° |
| 2026-05-06 18:25 | 57.67454 | 12.29296 | 532 ft | 6 kts | 292° |
| 2026-05-06 18:25 | 57.67460 | 12.29261 | 532 ft | 1 kts | 280° |
| 2026-05-06 18:25 | 57.67460 | 12.29259 | 532 ft | 0 kts | 280° |
| 2026-05-06 18:27 | 57.67462 | 12.29233 | 532 ft | 6 kts | 280° |
| 2026-05-06 18:27 | 57.67462 | 12.29110 | 530 ft | 11 kts | 293° |
| 2026-05-06 18:27 | 57.67447 | 12.29036 | 530 ft | 8 kts | 207° |
| 2026-05-06 18:28 | 57.67442 | 12.29032 | 530 ft | 1 kts | 207° |
| 2026-05-06 18:28 | 57.67397 | 12.28988 | 530 ft | 29 kts | 207° |
| 2026-05-06 18:28 | 57.66990 | 12.28614 | 529 ft | 97 kts | 205° |
| 2026-05-06 18:28 | 57.66217 | 12.27900 | 516 ft | 149 kts | 208° |
| 2026-05-06 18:29 | 57.65265 | 12.26833 | 920 ft | 158 kts | 212° |
| 2026-05-06 18:29 | 57.64269 | 12.25900 | 1527 ft | 163 kts | 208° |
| 2026-05-06 18:29 | 57.63189 | 12.24954 | 1903 ft | 182 kts | 207° |
| 2026-05-06 18:29 | 57.61991 | 12.23920 | 2307 ft | 198 kts | 206° |
| 2026-05-06 18:30 | 57.60689 | 12.22824 | 2818 ft | 211 kts | 204° |
| 2026-05-06 18:30 | 57.59298 | 12.21634 | 3230 ft | 232 kts | 206° |
| 2026-05-06 18:30 | 57.57814 | 12.20152 | 3759 ft | 251 kts | 218° |
| 2026-05-06 18:30 | 57.56738 | 12.17553 | 4632 ft | 258 kts | 246° |
| 2026-05-06 18:31 | 57.56303 | 12.14277 | 5568 ft | 263 kts | 257° |
| 2026-05-06 18:31 | 57.55954 | 12.10898 | 6494 ft | 267 kts | 257° |
| 2026-05-06 18:31 | 57.55606 | 12.07484 | 7394 ft | 269 kts | 257° |
| 2026-05-06 18:31 | 57.55253 | 12.04044 | 8274 ft | 272 kts | 257° |
| 2026-05-06 18:32 | 57.54894 | 12.00562 | 9149 ft | 275 kts | 258° |
| 2026-05-06 18:32 | 57.54531 | 11.97078 | 9955 ft | 280 kts | 258° |
| 2026-05-06 18:32 | 57.54194 | 11.93408 | 10360 ft | 299 kts | 263° |
| 2026-05-06 18:32 | 57.54100 | 11.89392 | 10561 ft | 322 kts | 271° |
| 2026-05-06 18:33 | 57.54311 | 11.85090 | 10706 ft | 345 kts | 276° |
| 2026-05-06 18:33 | 57.54595 | 11.80508 | 10835 ft | 366 kts | 276° |
| 2026-05-06 18:33 | 57.54885 | 11.75692 | 11108 ft | 381 kts | 276° |
| 2026-05-06 18:33 | 57.55178 | 11.70749 | 11686 ft | 386 kts | 276° |
| 2026-05-06 18:34 | 57.55469 | 11.65750 | 12299 ft | 390 kts | 276° |
| 2026-05-06 18:34 | 57.55761 | 11.60710 | 12974 ft | 393 kts | 276° |
| 2026-05-06 18:34 | 57.56062 | 11.55633 | 13664 ft | 396 kts | 277° |
| 2026-05-06 18:34 | 57.56737 | 11.50659 | 14232 ft | 399 kts | 289° |
| 2026-05-06 18:35 | 57.57678 | 11.45764 | 14810 ft | 401 kts | 289° |
| 2026-05-06 18:35 | 57.58623 | 11.40866 | 15375 ft | 403 kts | 289° |
| 2026-05-06 18:35 | 57.59575 | 11.35936 | 15933 ft | 405 kts | 289° |
| 2026-05-06 18:35 | 57.60533 | 11.30968 | 16474 ft | 407 kts | 289° |
| 2026-05-06 18:36 | 57.61491 | 11.25991 | 17006 ft | 409 kts | 288° |
| 2026-05-06 18:36 | 57.62455 | 11.20967 | 17522 ft | 411 kts | 288° |
| 2026-05-06 18:36 | 57.63418 | 11.15925 | 18028 ft | 414 kts | 288° |
| 2026-05-06 18:36 | 57.64385 | 11.10852 | 18492 ft | 416 kts | 288° |
| 2026-05-06 18:37 | 57.65355 | 11.05746 | 18917 ft | 417 kts | 288° |
| 2026-05-06 18:37 | 57.65996 | 11.02356 | 19203 ft | 419 kts | 288° |
| 2026-05-06 18:37 | 57.67282 | 10.95546 | 19757 ft | 421 kts | 287° |
| 2026-05-06 18:37 | 57.68258 | 10.90378 | 20190 ft | 422 kts | 287° |
| 2026-05-06 18:38 | 57.69233 | 10.85196 | 20582 ft | 424 kts | 287° |
| 2026-05-06 18:38 | 57.70212 | 10.79988 | 20948 ft | 425 kts | 287° |
| 2026-05-06 18:38 | 57.71192 | 10.74752 | 21297 ft | 427 kts | 287° |
| 2026-05-06 18:38 | 57.72171 | 10.69504 | 21612 ft | 428 kts | 287° |
| 2026-05-06 18:39 | 57.73153 | 10.64219 | 21921 ft | 430 kts | 287° |
| 2026-05-06 18:39 | 57.74132 | 10.58920 | 22240 ft | 431 kts | 286° |
| 2026-05-06 18:39 | 57.75110 | 10.53610 | 22540 ft | 433 kts | 286° |
| 2026-05-06 18:40 | 57.77082 | 10.42910 | 23126 ft | 436 kts | 286° |
| 2026-05-06 18:40 | 57.78069 | 10.37550 | 23579 ft | 434 kts | 285° |
| 2026-05-06 18:40 | 57.79045 | 10.32235 | 24038 ft | 430 kts | 285° |
| 2026-05-06 18:40 | 57.80011 | 10.26944 | 24478 ft | 427 kts | 285° |
| 2026-05-06 18:41 | 57.80967 | 10.21684 | 24890 ft | 425 kts | 285° |
| 2026-05-06 18:41 | 57.81914 | 10.16448 | 25287 ft | 424 kts | 284° |
| 2026-05-06 18:41 | 57.82855 | 10.11214 | 25687 ft | 422 kts | 284° |
| 2026-05-06 18:41 | 57.83789 | 10.05994 | 26094 ft | 421 kts | 284° |
| 2026-05-06 18:42 | 57.84711 | 10.00859 | 26509 ft | 420 kts | 284° |
| 2026-05-06 18:42 | 57.85645 | 9.95670 | 26936 ft | 419 kts | 284° |
| 2026-05-06 18:42 | 57.86573 | 9.90501 | 27358 ft | 418 kts | 284° |
| 2026-05-06 18:42 | 57.87498 | 9.85333 | 27809 ft | 416 kts | 283° |
| 2026-05-06 18:43 | 57.88415 | 9.80182 | 28269 ft | 415 kts | 283° |
| 2026-05-06 18:43 | 57.89327 | 9.75042 | 28744 ft | 413 kts | 283° |
| 2026-05-06 18:43 | 57.90229 | 9.69930 | 29222 ft | 412 kts | 283° |
| 2026-05-06 18:43 | 57.91125 | 9.64818 | 29586 ft | 411 kts | 283° |
| 2026-05-06 18:44 | 57.92017 | 9.59719 | 29870 ft | 410 kts | 283° |
| 2026-05-06 18:44 | 57.92911 | 9.54616 | 29983 ft | 413 kts | 283° |
| 2026-05-06 18:44 | 57.93813 | 9.49449 | 29987 ft | 418 kts | 283° |
| 2026-05-06 18:45 | 57.95633 | 9.39002 | 29980 ft | 420 kts | 283° |
| 2026-05-06 18:45 | 57.97450 | 9.28527 | 29978 ft | 421 kts | 283° |
| 2026-05-06 18:46 | 57.98948 | 9.19819 | 29994 ft | 421 kts | 283° |
| 2026-05-06 18:46 | 58.01037 | 9.07565 | 29974 ft | 422 kts | 283° |
| 2026-05-06 18:47 | 58.02529 | 8.98791 | 29975 ft | 422 kts | 283° |
| 2026-05-06 18:47 | 58.04319 | 8.88244 | 29977 ft | 422 kts | 283° |
| 2026-05-06 18:48 | 58.06097 | 8.77702 | 29972 ft | 422 kts | 283° |
| 2026-05-06 18:48 | 58.07865 | 8.67144 | 29970 ft | 422 kts | 283° |
| 2026-05-06 18:49 | 58.09622 | 8.56567 | 29994 ft | 422 kts | 283° |
| 2026-05-06 18:49 | 58.11377 | 8.45968 | 29983 ft | 422 kts | 283° |
| 2026-05-06 18:50 | 58.13111 | 8.35399 | 29973 ft | 422 kts | 283° |
| 2026-05-06 18:50 | 58.14834 | 8.24802 | 29969 ft | 422 kts | 283° |
| 2026-05-06 18:51 | 58.16559 | 8.14176 | 29968 ft | 422 kts | 283° |
| 2026-05-06 18:51 | 58.18279 | 8.03531 | 29967 ft | 422 kts | 283° |
| 2026-05-06 18:52 | 58.19988 | 7.92896 | 29987 ft | 422 kts | 283° |
| 2026-05-06 18:52 | 58.21675 | 7.82324 | 29987 ft | 421 kts | 283° |
| 2026-05-06 18:53 | 58.23355 | 7.71689 | 29988 ft | 421 kts | 283° |
| 2026-05-06 18:53 | 58.24191 | 7.66371 | 29887 ft | 421 kts | 283° |
| 2026-05-06 18:53 | 58.25028 | 7.61049 | 29052 ft | 420 kts | 283° |
| 2026-05-06 18:53 | 58.25862 | 7.55738 | 27971 ft | 420 kts | 283° |
| 2026-05-06 18:54 | 58.26690 | 7.50442 | 26994 ft | 417 kts | 283° |
| 2026-05-06 18:54 | 58.27512 | 7.45165 | 25894 ft | 418 kts | 283° |
| 2026-05-06 18:54 | 58.28337 | 7.39844 | 24794 ft | 419 kts | 284° |
| 2026-05-06 18:54 | 58.29161 | 7.34531 | 23758 ft | 419 kts | 284° |
| 2026-05-06 18:55 | 58.29978 | 7.29236 | 22770 ft | 414 kts | 284° |
| 2026-05-06 18:55 | 58.30780 | 7.24030 | 21964 ft | 407 kts | 284° |
| 2026-05-06 18:55 | 58.31567 | 7.18907 | 21174 ft | 400 kts | 284° |
| 2026-05-06 18:55 | 58.32339 | 7.13851 | 20370 ft | 395 kts | 284° |
| 2026-05-06 18:56 | 58.33100 | 7.08858 | 19585 ft | 391 kts | 284° |
| 2026-05-06 18:56 | 58.33851 | 7.03916 | 18812 ft | 387 kts | 284° |
| 2026-05-06 18:56 | 58.34657 | 6.99109 | 17877 ft | 388 kts | 291° |
| 2026-05-06 18:56 | 58.35953 | 6.94552 | 16756 ft | 392 kts | 297° |
| 2026-05-06 18:57 | 58.37323 | 6.90051 | 15657 ft | 394 kts | 298° |
| 2026-05-06 18:57 | 58.38704 | 6.85526 | 14641 ft | 395 kts | 298° |
| 2026-05-06 18:57 | 58.40066 | 6.81060 | 13921 ft | 388 kts | 298° |
| 2026-05-06 18:57 | 58.41419 | 6.76597 | 13155 ft | 384 kts | 298° |
| 2026-05-06 18:58 | 58.42746 | 6.72201 | 12403 ft | 380 kts | 298° |
| 2026-05-06 18:58 | 58.44051 | 6.67864 | 11848 ft | 374 kts | 298° |
| 2026-05-06 18:58 | 58.45337 | 6.63589 | 11413 ft | 365 kts | 298° |
| 2026-05-06 18:58 | 58.46564 | 6.59505 | 11283 ft | 345 kts | 298° |
| 2026-05-06 18:59 | 58.47728 | 6.55622 | 11140 ft | 327 kts | 298° |
| 2026-05-06 18:59 | 58.48831 | 6.51932 | 11027 ft | 312 kts | 298° |
| 2026-05-06 18:59 | 58.49884 | 6.48398 | 10904 ft | 299 kts | 298° |
| 2026-05-06 18:59 | 58.50891 | 6.45018 | 10776 ft | 287 kts | 298° |
| 2026-05-06 19:00 | 58.51846 | 6.41794 | 10650 ft | 277 kts | 298° |
| 2026-05-06 19:00 | 58.52763 | 6.38594 | 10428 ft | 271 kts | 297° |
| 2026-05-06 19:00 | 58.53642 | 6.35457 | 10337 ft | 266 kts | 297° |
| 2026-05-06 19:00 | 58.54511 | 6.32322 | 10229 ft | 266 kts | 297° |
| 2026-05-06 19:01 | 58.55380 | 6.29186 | 10111 ft | 267 kts | 297° |
| 2026-05-06 19:01 | 58.56248 | 6.26050 | 10003 ft | 267 kts | 297° |
| 2026-05-06 19:01 | 58.57127 | 6.22876 | 9559 ft | 271 kts | 297° |
| 2026-05-06 19:01 | 58.58003 | 6.19713 | 9153 ft | 270 kts | 298° |
| 2026-05-06 19:02 | 58.58877 | 6.16544 | 8811 ft | 268 kts | 298° |
| 2026-05-06 19:02 | 58.59747 | 6.13384 | 8462 ft | 267 kts | 298° |
| 2026-05-06 19:02 | 58.60607 | 6.10252 | 8110 ft | 265 kts | 298° |
| 2026-05-06 19:02 | 58.61465 | 6.07122 | 7701 ft | 265 kts | 298° |
| 2026-05-06 19:03 | 58.62322 | 6.03984 | 7319 ft | 265 kts | 299° |
| 2026-05-06 19:03 | 58.63170 | 6.00882 | 6839 ft | 262 kts | 299° |
| 2026-05-06 19:03 | 58.64037 | 5.97765 | 6435 ft | 264 kts | 300° |
| 2026-05-06 19:03 | 58.64904 | 5.94673 | 6040 ft | 265 kts | 300° |
| 2026-05-06 19:04 | 58.65771 | 5.91528 | 5554 ft | 268 kts | 300° |
| 2026-05-06 19:04 | 58.66637 | 5.88338 | 5083 ft | 271 kts | 300° |
| 2026-05-06 19:04 | 58.67510 | 5.85120 | 4597 ft | 273 kts | 300° |
| 2026-05-06 19:04 | 58.68373 | 5.81948 | 4106 ft | 268 kts | 300° |
| 2026-05-06 19:05 | 58.69205 | 5.78872 | 3641 ft | 248 kts | 300° |
| 2026-05-06 19:05 | 58.69959 | 5.76056 | 3294 ft | 227 kts | 300° |
| 2026-05-06 19:05 | 58.70663 | 5.73466 | 2965 ft | 213 kts | 302° |
| 2026-05-06 19:05 | 58.71362 | 5.71006 | 2822 ft | 205 kts | 302° |
| 2026-05-06 19:06 | 58.72022 | 5.68652 | 2706 ft | 195 kts | 301° |
| 2026-05-06 19:06 | 58.72721 | 5.66494 | 2539 ft | 185 kts | 316° |
| 2026-05-06 19:06 | 58.73685 | 5.65020 | 2489 ft | 169 kts | 334° |
| 2026-05-06 19:06 | 58.74735 | 5.64287 | 2413 ft | 155 kts | 349° |
| 2026-05-06 19:07 | 58.75782 | 5.64145 | 2262 ft | 147 kts | 359° |
| 2026-05-06 19:07 | 58.76784 | 5.64170 | 2105 ft | 142 kts | 360° |
| 2026-05-06 19:07 | 58.77760 | 5.64123 | 1922 ft | 136 kts | 357° |
| 2026-05-06 19:07 | 58.78676 | 5.64068 | 1705 ft | 129 kts | 358° |
| 2026-05-06 19:08 | 58.79574 | 5.64042 | 1529 ft | 129 kts | 358° |
| 2026-05-06 19:08 | 58.80470 | 5.64013 | 1379 ft | 128 kts | 358° |
| 2026-05-06 19:08 | 58.81369 | 5.63987 | 1179 ft | 130 kts | 358° |
| 2026-05-06 19:08 | 58.82266 | 5.63969 | 1051 ft | 128 kts | 358° |
| 2026-05-06 19:09 | 58.83163 | 5.63935 | 831 ft | 130 kts | 358° |
| 2026-05-06 19:09 | 58.84054 | 5.63912 | 680 ft | 129 kts | 357° |
| 2026-05-06 19:09 | 58.84965 | 5.63886 | 487 ft | 133 kts | 356° |
| 2026-05-06 19:09 | 58.85875 | 5.63847 | 322 ft | 127 kts | 356° |
| 2026-05-06 19:10 | 58.86758 | 5.63812 | 148 ft | 127 kts | 355° |
| 2026-05-06 19:10 | 58.87622 | 5.63786 | 45 ft | 115 kts | 357° |
| 2026-05-06 19:10 | 58.88224 | 5.63765 | 38 ft | 45 kts | 359° |
| 2026-05-06 19:10 | 58.88315 | 5.63762 | 37 ft | 5 kts | 359° |
| 2026-05-06 19:11 | 58.88422 | 5.63760 | 35 ft | 22 kts | 359° |
| 2026-05-06 19:11 | 58.88590 | 5.63751 | 32 ft | 25 kts | 358° |
| 2026-05-06 19:11 | 58.88715 | 5.63646 | 30 ft | 19 kts | 287° |
| 2026-05-06 19:11 | 58.88708 | 5.63500 | 31 ft | 10 kts | 272° |
| 2026-05-06 19:12 | 58.88658 | 5.63421 | 31 ft | 12 kts | 185° |
| 2026-05-06 19:12 | 58.88566 | 5.63421 | 32 ft | 15 kts | 180° |
| 2026-05-06 19:12 | 58.88456 | 5.63422 | 33 ft | 17 kts | 180° |
| 2026-05-06 19:12 | 58.88339 | 5.63428 | 34 ft | 15 kts | 179° |
| 2026-05-06 19:13 | 58.88273 | 5.63337 | 35 ft | 13 kts | 245° |
| 2026-05-06 19:13 | 58.88248 | 5.63149 | 35 ft | 14 kts | 252° |
| 2026-05-06 19:13 | 58.88241 | 5.63100 | 34 ft | 0 kts | 255° |